Time;durP1;ratioP1;P1;durP2;ratioP2;P2;SDS_P1;SDS_P2;PMS_P1;PMS_P2;Temp;Humidity;BMP_temperature;BMP_pressure;BME280_temperature;BME280_humidity;BME280_pressure;Samples;Min_cycle;Max_cycle;Signal;HPM_P1;HPM_P2
2021/12/01 07:10:33;;;;;;;1.70;1.10;;;;;;;;;;12850903;22;1569367;-85
2021/12/01 07:15:34;;;;;;;1.98;1.23;;;;;;;;;;12913059;22;20064;-82
2021/12/01 07:20:35;;;;;;;1.35;1.00;;;;;;;;;;12904286;22;20095;-83
2021/12/01 07:25:36;;;;;;;2.47;1.52;;;;;;;;;;12883354;23;20386;-84
2021/12/01 07:30:39;;;;;;;1.73;1.13;;;;;;;;;;12883482;23;20015;-83
2021/12/01 07:35:40;;;;;;;3.22;1.70;;;;;;;;;;12880155;23;20008;-85
2021/12/01 07:40:41;;;;;;;1.67;1.20;;;;;;;;;;12875640;23;20336;-83
2021/12/01 07:45:44;;;;;;;3.50;1.25;;;;;;;;;;12872134;23;20297;-83
2021/12/01 07:50:45;;;;;;;2.20;1.08;;;;;;;;;;12893451;23;20420;-83
2021/12/01 07:55:45;;;;;;;1.33;0.90;;;;;;;;;;12860361;23;20135;-83
2021/12/01 08:00:46;;;;;;;1.30;0.65;;;;;;;;;;12883736;22;20015;-84
2021/12/01 08:05:47;;;;;;;2.58;0.70;;;;;;;;;;12851332;23;20008;-83
2021/12/01 08:10:48;;;;;;;1.10;0.70;;;;;;;;;;12846863;23;20401;-80
2021/12/01 08:15:50;;;;;;;1.45;0.85;;;;;;;;;;12844159;23;20103;-79
2021/12/01 08:20:51;;;;;;;1.20;0.80;;;;;;;;;;12845593;23;20000;-80
2021/12/01 08:25:52;;;;;;;1.15;0.77;;;;;;;;;;12845508;23;20007;-80
2021/12/01 08:30:53;;;;;;;0.80;0.65;;;;;;;;;;12870534;23;20005;-82
2021/12/01 08:35:54;;;;;;;;;;;;;;;;;;12846974;23;20409;-80
2021/12/01 08:40:55;;;;;;;2.97;0.90;;;;;;;;;;12872579;23;19912;-80
2021/12/01 08:45:56;;;;;;;1.60;0.98;;;;;;;;;;12845956;23;20007;-80
2021/12/01 08:51:01;;;;;;;1.75;1.17;;;;;;;;;;12852815;23;20005;-80
2021/12/01 08:56:03;;;;;;;1.48;0.80;;;;;;;;;;12847259;23;20009;-81
2021/12/01 09:01:04;;;;;;;1.02;0.80;;;;;;;;;;12871914;23;20024;-82
2021/12/01 09:06:05;;;;;;;2.60;1.17;;;;;;;;;;12870763;23;20009;-80
2021/12/01 09:11:06;;;;;;;1.10;0.88;;;;;;;;;;12847288;23;20013;-81
2021/12/01 09:16:08;;;;;;;1.35;0.93;;;;;;;;;;12870559;23;20053;-82
2021/12/01 09:21:09;;;;;;;3.60;1.25;;;;;;;;;;12873764;23;20028;-85
2021/12/01 09:26:10;;;;;;;2.53;0.68;;;;;;;;;;12874298;23;20009;-81
2021/12/01 09:31:11;;;;;;;2.25;1.20;;;;;;;;;;12844357;23;20012;-81
2021/12/01 09:36:12;;;;;;;2.85;1.10;;;;;;;;;;12871309;23;20055;-82
2021/12/01 09:41:13;;;;;;;2.42;1.50;;;;;;;;;;12846028;23;20063;-82
2021/12/01 09:46:14;;;;;;;1.60;1.13;;;;;;;;;;12846546;23;20016;-81
2021/12/01 09:51:16;;;;;;;2.80;1.52;;;;;;;;;;12846966;23;20445;-85
2021/12/01 09:56:18;;;;;;;1.20;0.93;;;;;;;;;;12846591;23;20009;-81
2021/12/01 10:01:20;;;;;;;2.45;1.30;;;;;;;;;;12896042;22;20005;-82
2021/12/01 10:06:22;;;;;;;4.65;3.00;;;;;;;;;;12849743;23;20012;-81
2021/12/01 10:11:25;;;;;;;1.90;1.10;;;;;;;;;;12873219;23;20120;-81
2021/12/01 10:16:28;;;;;;;1.92;1.38;;;;;;;;;;12845212;23;20016;-81
2021/12/01 10:21:39;;;;;;;1.50;1.00;;;;;;;;;;12870778;23;20006;-84
2021/12/01 10:26:50;;;;;;;2.40;1.30;;;;;;;;;;12873136;23;20015;-83
2021/12/01 10:31:56;;;;;;;1.67;0.70;;;;;;;;;;12847428;23;20009;-86
2021/12/01 10:37:33;;;;;;;1.83;0.93;;;;;;;;;;12852354;23;20005;-86
2021/12/01 10:42:56;;;;;;;1.85;1.05;;;;;;;;;;12876443;23;20336;-83
2021/12/01 10:48:06;;;;;;;2.50;1.20;;;;;;;;;;12851069;23;20043;-84
2021/12/01 10:53:17;;;;;;;2.03;1.37;;;;;;;;;;12870633;23;20404;-84
2021/12/01 10:58:18;;;;;;;2.37;1.07;;;;;;;;;;12881604;23;20009;-84
2021/12/01 11:03:19;;;;;;;;;;;;;;;;;;12859114;23;20100;-83
2021/12/01 11:08:25;;;;;;;1.75;1.05;;;;;;;;;;12875658;23;19953;-84
2021/12/01 11:13:27;;;;;;;1.95;1.00;;;;;;;;;;12851291;23;20005;-85
2021/12/01 11:18:31;;;;;;;2.83;1.48;;;;;;;;;;12871931;23;20467;-84
2021/12/01 11:23:34;;;;;;;1.77;1.00;;;;;;;;;;12848583;23;20317;-83
2021/12/01 11:28:40;;;;;;;3.40;1.40;;;;;;;;;;12875334;23;20409;-84
2021/12/01 11:33:44;;;;;;;3.47;1.50;;;;;;;;;;12866428;23;20019;-82
2021/12/01 11:38:51;;;;;;;2.67;1.55;;;;;;;;;;12876972;23;20050;-82
2021/12/01 11:43:52;;;;;;;3.17;1.92;;;;;;;;;;12851737;23;20008;-81
2021/12/01 11:48:58;;;;;;;2.47;1.80;;;;;;;;;;12851974;23;20011;-82
2021/12/01 11:54:12;;;;;;;2.42;1.30;;;;;;;;;;12845230;23;20039;-83
2021/12/01 11:59:16;;;;;;;3.65;2.00;;;;;;;;;;12844171;23;20015;-82
2021/12/01 12:04:19;;;;;;;2.83;1.60;;;;;;;;;;12895268;22;20016;-82
2021/12/01 12:09:23;;;;;;;6.05;3.90;;;;;;;;;;12849972;23;20013;-83
2021/12/01 12:14:30;;;;;;;2.72;1.80;;;;;;;;;;12873377;23;20075;-85
2021/12/01 12:19:52;;;;;;;3.05;2.15;;;;;;;;;;12870156;23;20009;-84
2021/12/01 12:24:59;;;;;;;6.28;2.13;;;;;;;;;;12879163;23;20425;-86
2021/12/01 12:30:05;;;;;;;3.28;1.55;;;;;;;;;;12846365;23;20059;-84
2021/12/01 12:35:08;;;;;;;4.13;1.80;;;;;;;;;;12870339;23;20028;-85
2021/12/01 12:40:32;;;;;;;3.05;2.00;;;;;;;;;;12870128;23;20055;-83
2021/12/01 12:45:40;;;;;;;3.17;1.88;;;;;;;;;;12857805;23;20413;-85
2021/12/01 12:50:41;;;;;;;2.67;1.77;;;;;;;;;;12873292;23;20011;-85
2021/12/01 12:55:43;;;;;;;5.25;1.30;;;;;;;;;;12846091;23;20005;-84
2021/12/01 13:01:07;;;;;;;2.90;1.35;;;;;;;;;;12874971;23;19997;-84
2021/12/01 13:06:51;;;;;;;3.65;1.63;;;;;;;;;;12851554;23;20004;-85
2021/12/01 13:12:09;;;;;;;5.45;1.40;;;;;;;;;;12935086;22;20024;-82
2021/12/01 13:17:10;;;;;;;3.25;1.50;;;;;;;;;;12914786;23;20011;-83
2021/12/01 13:22:12;;;;;;;4.07;1.35;;;;;;;;;;12922962;23;20455;-83
2021/12/01 13:27:13;;;;;;;3.15;1.17;;;;;;;;;;12917140;23;20036;-82
2021/12/01 13:32:17;;;;;;;7.03;2.05;;;;;;;;;;12913772;23;20012;-81
2021/12/01 13:37:18;;;;;;;7.55;3.38;;;;;;;;;;12915922;23;20077;-82
2021/12/01 13:42:24;;;;;;;4.50;1.75;;;;;;;;;;12914646;23;20008;-82
2021/12/01 13:47:26;;;;;;;3.72;1.45;;;;;;;;;;12911982;23;20012;-82
2021/12/01 13:52:28;;;;;;;5.40;2.20;;;;;;;;;;12938888;23;20004;-83
2021/12/01 13:57:30;;;;;;;4.70;1.30;;;;;;;;;;12914310;23;20375;-82
2021/12/01 14:02:31;;;;;;;3.47;1.77;;;;;;;;;;12939848;23;19996;-82
2021/12/01 14:07:47;;;;;;;3.38;1.40;;;;;;;;;;12913788;23;20055;-82
2021/12/01 14:12:55;;;;;;;2.90;1.40;;;;;;;;;;12914032;23;20090;-82
2021/12/01 14:17:57;;;;;;;4.10;1.67;;;;;;;;;;12941417;23;20082;-80
2021/12/01 14:22:58;;;;;;;3.53;1.30;;;;;;;;;;12914177;23;20004;-82
2021/12/01 14:28:12;;;;;;;3.20;1.20;;;;;;;;;;12942324;23;20000;-82
2021/12/01 14:33:14;;;;;;;3.22;1.10;;;;;;;;;;12937478;23;20063;-82
2021/12/01 14:38:15;;;;;;;3.40;1.10;;;;;;;;;;12929867;23;20016;-81
2021/12/01 14:43:25;;;;;;;3.22;1.20;;;;;;;;;;12926283;23;20050;-83
2021/12/01 14:48:32;;;;;;;3.58;1.15;;;;;;;;;;12922076;23;20091;-82
2021/12/01 14:53:37;;;;;;;5.60;1.15;;;;;;;;;;12921094;23;20004;-82
2021/12/01 14:58:49;;;;;;;3.42;1.70;;;;;;;;;;12928881;23;20348;-81
2021/12/01 15:03:50;;;;;;;4.47;1.48;;;;;;;;;;12925557;23;20000;-80
2021/12/01 15:08:51;;;;;;;;;;;;;;;;;;12965989;23;20053;-82
2021/12/01 15:13:53;;;;;;;4.35;1.60;;;;;;;;;;12942320;23;19899;-83
2021/12/01 15:19:23;;;;;;;3.28;1.02;;;;;;;;;;12936642;23;20103;-86
2021/12/01 15:24:28;;;;;;;5.57;1.20;;;;;;;;;;12931245;23;20012;-83
2021/12/01 15:29:30;;;;;;;2.33;1.10;;;;;;;;;;12931207;23;20004;-84
2021/12/01 15:34:33;;;;;;;3.92;1.13;;;;;;;;;;12925795;23;20494;-83
2021/12/01 15:39:34;;;;;;;6.25;1.35;;;;;;;;;;12929701;23;20000;-83
2021/12/01 15:44:36;;;;;;;3.03;1.05;;;;;;;;;;12921216;23;20000;-81
2021/12/01 15:49:43;;;;;;;3.60;1.30;;;;;;;;;;12911848;23;20062;-81
2021/12/01 15:54:44;;;;;;;6.05;1.88;;;;;;;;;;12910025;23;20042;-81
2021/12/01 15:59:45;;;;;;;;;;;;;;;;;;12909904;23;20023;-79
2021/12/01 16:04:46;;;;;;;4.20;1.73;;;;;;;;;;12908737;23;20311;-80
2021/12/01 16:09:47;;;;;;;4.40;1.88;;;;;;;;;;12907513;23;20391;-81
2021/12/01 16:14:48;;;;;;;4.45;2.30;;;;;;;;;;12908803;23;20000;-80
2021/12/01 16:19:49;;;;;;;5.60;2.25;;;;;;;;;;12906886;23;20001;-80
2021/12/01 16:24:50;;;;;;;4.13;1.88;;;;;;;;;;12914332;23;20086;-81
2021/12/01 16:29:51;;;;;;;5.07;1.48;;;;;;;;;;12915636;23;20000;-81
2021/12/01 16:34:52;;;;;;;3.20;1.60;;;;;;;;;;12911537;23;20011;-81
2021/12/01 16:39:53;;;;;;;2.75;1.40;;;;;;;;;;12910527;23;20520;-80
2021/12/01 16:44:58;;;;;;;3.28;1.80;;;;;;;;;;12909393;23;20000;-82
2021/12/01 16:50:00;;;;;;;3.63;0.90;;;;;;;;;;12909206;23;20004;-81
2021/12/01 16:55:03;;;;;;;2.72;1.00;;;;;;;;;;12908784;23;20470;-80
2021/12/01 17:00:12;;;;;;;4.05;1.33;;;;;;;;;;12905343;23;20008;-80
2021/12/01 17:05:15;;;;;;;3.72;1.00;;;;;;;;;;12909224;23;20060;-81
2021/12/01 17:10:16;;;;;;;3.13;1.30;;;;;;;;;;12906290;23;20468;-80
2021/12/01 17:15:19;;;;;;;3.70;1.40;;;;;;;;;;12908295;23;20145;-80
2021/12/01 17:20:33;;;;;;;3.17;1.08;;;;;;;;;;12926721;23;20019;-83
